createdAt,value
2018-07-02T00:00:22.859Z,6.59
2018-07-02T00:01:22.857Z,6.58
2018-07-02T00:02:25.574Z,6.58
2018-07-02T00:03:22.916Z,6.6
2018-07-02T00:04:22.785Z,6.57
2018-07-02T00:05:22.830Z,6.59
2018-07-02T00:06:25.861Z,6.62
2018-07-02T00:07:22.796Z,6.61
2018-07-02T00:08:22.810Z,6.62
2018-07-02T00:09:22.923Z,6.62
2018-07-02T00:10:25.980Z,6.6
2018-07-02T00:11:22.839Z,6.61
2018-07-02T00:12:22.914Z,6.61
2018-07-02T00:13:22.882Z,6.62
2018-07-02T00:14:22.897Z,6.6
2018-07-02T00:15:22.800Z,6.62
2018-07-02T00:16:22.864Z,6.62
2018-07-02T00:17:22.916Z,6.63
2018-07-02T00:18:22.842Z,6.62
2018-07-02T00:19:26.237Z,6.62
2018-07-02T00:20:22.844Z,6.61
2018-07-02T00:21:22.830Z,6.63
2018-07-02T00:22:22.844Z,6.63
2018-07-02T00:23:25.582Z,6.61
2018-07-02T00:24:22.798Z,6.6
2018-07-02T00:25:22.968Z,6.59
2018-07-02T00:26:23.007Z,6.61
2018-07-02T00:27:25.746Z,6.63
2018-07-02T00:28:22.898Z,6.61
2018-07-02T00:29:22.893Z,6.59
2018-07-02T00:30:23.013Z,6.61
2018-07-02T00:31:25.876Z,6.61
2018-07-02T00:32:23.458Z,6.59
2018-07-02T00:33:22.883Z,6.59
2018-07-02T00:34:22.867Z,6.58
2018-07-02T00:35:24.780Z,6.63
2018-07-02T00:36:22.899Z,6.59
2018-07-02T00:37:22.862Z,6.58
2018-07-02T00:38:25.103Z,6.59
2018-07-02T00:39:22.920Z,6.59
2018-07-02T00:40:26.213Z,6.6
2018-07-02T00:41:22.823Z,6.6
2018-07-02T00:42:22.914Z,6.62
2018-07-02T00:43:22.922Z,6.6
2018-07-02T00:44:22.867Z,6.61
2018-07-02T00:45:23.430Z,6.64
2018-07-02T00:46:22.913Z,6.61
2018-07-02T00:47:23.125Z,6.59
2018-07-02T00:48:22.879Z,6.6
2018-07-02T00:49:23.080Z,6.58
2018-07-02T00:50:22.881Z,6.61
2018-07-02T00:51:22.854Z,6.59
2018-07-02T00:52:22.871Z,6.57
2018-07-02T00:53:28.656Z,6.6
2018-07-02T00:54:23.474Z,6.59
2018-07-02T00:55:22.915Z,6.59
2018-07-02T00:56:23.667Z,6.58
2018-07-02T00:57:27.199Z,6.57
2018-07-02T00:58:23.832Z,6.58
2018-07-02T00:59:22.849Z,6.6
2018-07-02T01:00:26.528Z,6.6
2018-07-02T01:01:23.245Z,6.58
2018-07-02T01:02:22.877Z,6.6
2018-07-02T01:03:23.019Z,6.58
2018-07-02T01:04:23.034Z,6.58
2018-07-02T01:05:22.982Z,6.56
2018-07-02T01:06:23.913Z,6.58
2018-07-02T01:07:25.514Z,6.6
2018-07-02T01:08:24.329Z,6.57
2018-07-02T01:09:22.887Z,6.61
2018-07-02T01:10:24.418Z,6.58
2018-07-02T01:11:23.764Z,6.59
2018-07-02T01:12:22.879Z,6.62
2018-07-02T01:13:22.864Z,6.62
2018-07-02T01:14:22.926Z,6.58
2018-07-02T01:15:26.085Z,6.6
2018-07-02T01:16:22.883Z,6.56
2018-07-02T01:17:22.873Z,6.58
2018-07-02T01:18:22.983Z,6.58
2018-07-02T01:19:22.972Z,6.6
2018-07-02T01:20:22.843Z,6.58
2018-07-02T01:21:22.989Z,6.58
2018-07-02T01:22:22.897Z,6.61
2018-07-02T01:23:24.698Z,6.59
2018-07-02T01:24:24.454Z,6.62
2018-07-02T01:25:23.016Z,6.6
2018-07-02T01:26:26.051Z,6.58
2018-07-02T01:27:22.927Z,6.59
2018-07-02T01:28:22.946Z,6.57
2018-07-02T01:29:24.943Z,6.58
2018-07-02T01:30:22.912Z,6.59
2018-07-02T01:31:22.870Z,6.58
2018-07-02T01:32:25.894Z,6.6
2018-07-02T01:33:26.274Z,6.57
2018-07-02T01:34:25.695Z,6.59
2018-07-02T01:35:22.899Z,6.6
2018-07-02T01:36:25.983Z,6.59
2018-07-02T01:37:27.185Z,6.58
2018-07-02T01:38:22.936Z,6.58
2018-07-02T01:39:25.761Z,6.57
2018-07-02T01:40:22.913Z,6.59
2018-07-02T01:41:22.910Z,6.59
2018-07-02T01:42:22.859Z,6.56
2018-07-02T01:43:22.964Z,6.57
2018-07-02T01:44:23.228Z,6.56
2018-07-02T01:45:26.336Z,6.6
2018-07-02T01:46:22.950Z,6.53
2018-07-02T01:47:22.922Z,6.57
2018-07-02T01:48:24.770Z,6.56
2018-07-02T01:49:22.943Z,6.54
2018-07-02T01:50:22.888Z,6.55
2018-07-02T01:51:25.923Z,6.55
2018-07-02T01:52:23.005Z,6.52
2018-07-02T01:53:22.974Z,6.57
2018-07-02T01:54:23.131Z,6.57
2018-07-02T01:55:22.896Z,6.53
2018-07-02T01:56:22.892Z,6.55
2018-07-02T01:57:22.890Z,6.57
2018-07-02T01:58:26.478Z,6.56
2018-07-02T01:59:23.033Z,6.55
2018-07-02T02:00:22.914Z,6.49
2018-07-02T02:01:22.926Z,6.55
2018-07-02T02:02:26.099Z,6.54
2018-07-02T02:03:22.904Z,6.56
2018-07-02T02:04:22.896Z,6.57
2018-07-02T02:05:22.887Z,6.55
2018-07-02T02:06:23.936Z,6.56
2018-07-02T02:07:22.905Z,6.56
2018-07-02T02:08:22.865Z,6.55
2018-07-02T02:09:22.872Z,6.55
2018-07-02T02:10:22.882Z,6.56
2018-07-02T02:11:22.908Z,6.56
2018-07-02T02:12:22.918Z,6.53
2018-07-02T02:13:22.972Z,6.53
2018-07-02T02:14:22.902Z,6.53
2018-07-02T02:15:23.041Z,6.48
2018-07-02T02:16:22.878Z,6.53
2018-07-02T02:17:22.856Z,6.53
2018-07-02T02:18:22.930Z,6.53
2018-07-02T02:19:22.890Z,6.54
2018-07-02T02:20:22.916Z,6.53
2018-07-02T02:21:23.009Z,6.48
2018-07-02T02:22:23.007Z,6.54
2018-07-02T02:23:25.929Z,6.53
2018-07-02T02:24:23.024Z,6.52
2018-07-02T02:25:22.883Z,6.52
2018-07-02T02:26:22.888Z,6.51
2018-07-02T02:27:25.037Z,6.52
2018-07-02T02:28:22.911Z,6.54
2018-07-02T02:29:22.928Z,6.54
2018-07-02T02:30:22.912Z,6.53
2018-07-02T02:31:26.297Z,6.49
2018-07-02T02:32:23.022Z,6.53
2018-07-02T02:33:22.874Z,6.51
2018-07-02T02:34:22.955Z,6.53
2018-07-02T02:35:24.165Z,6.54
2018-07-02T02:36:22.945Z,6.52
2018-07-02T02:37:23.013Z,6.5
2018-07-02T02:38:23.747Z,6.5
2018-07-02T02:39:23.282Z,6.54
2018-07-02T02:40:23.035Z,6.54
2018-07-02T02:41:22.978Z,6.53
2018-07-02T02:42:22.966Z,6.53
2018-07-02T02:43:23.106Z,6.51
2018-07-02T02:44:22.907Z,6.53
2018-07-02T02:45:22.966Z,6.55
2018-07-02T02:46:22.957Z,6.53
2018-07-02T02:47:22.936Z,6.51
2018-07-02T02:48:22.891Z,6.53
2018-07-02T02:49:22.932Z,6.56
2018-07-02T02:50:22.916Z,6.52
2018-07-02T02:51:22.957Z,6.55
2018-07-02T02:52:22.899Z,6.52
2018-07-02T02:53:22.910Z,6.53
2018-07-02T02:54:22.937Z,6.55
2018-07-02T02:55:22.973Z,6.55
2018-07-02T02:56:22.916Z,6.54
2018-07-02T02:57:22.947Z,6.54
2018-07-02T02:58:22.909Z,6.54
2018-07-02T02:59:22.985Z,6.55
2018-07-02T03:00:25.781Z,6.52
2018-07-02T03:01:23.023Z,6.53
2018-07-02T03:02:22.931Z,6.55
2018-07-02T03:03:22.908Z,6.54
2018-07-02T03:04:25.705Z,6.55
2018-07-02T03:05:22.960Z,6.56
2018-07-02T03:06:22.958Z,6.55
2018-07-02T03:07:22.917Z,6.53
2018-07-02T03:08:22.996Z,6.55
2018-07-02T03:09:23.381Z,6.55
2018-07-02T03:10:22.988Z,6.54
2018-07-02T03:11:23.256Z,6.52
2018-07-02T03:12:22.952Z,6.54
2018-07-02T03:13:25.559Z,6.49
2018-07-02T03:14:23.015Z,6.5
2018-07-02T03:15:23.024Z,6.56
2018-07-02T03:16:23.010Z,6.55
2018-07-02T03:17:25.588Z,6.53
2018-07-02T03:18:23.111Z,6.56
2018-07-02T03:19:22.929Z,6.55
2018-07-02T03:20:23.543Z,6.57
2018-07-02T03:21:24.797Z,6.55
2018-07-02T03:22:22.991Z,6.56
2018-07-02T03:23:23.249Z,6.55
2018-07-02T03:24:22.988Z,6.57
2018-07-02T03:25:24.210Z,6.55
2018-07-02T03:26:22.957Z,6.54
2018-07-02T03:27:23.038Z,6.55
2018-07-02T03:28:23.067Z,6.55
2018-07-02T03:29:24.613Z,6.55
2018-07-02T03:30:23.088Z,6.57
2018-07-02T03:31:23.149Z,6.57
2018-07-02T03:32:23.169Z,6.54
2018-07-02T03:33:23.867Z,6.55
2018-07-02T03:34:22.955Z,6.55
2018-07-02T03:35:23.006Z,6.56
2018-07-02T03:36:23.009Z,6.55
2018-07-02T03:37:25.526Z,6.54
2018-07-02T03:38:22.984Z,6.54
2018-07-02T03:39:23.041Z,6.53
2018-07-02T03:40:23.033Z,6.55
2018-07-02T03:41:25.862Z,6.58
2018-07-02T03:42:22.944Z,6.55
2018-07-02T03:43:22.994Z,6.54
2018-07-02T03:44:27.035Z,6.58
2018-07-02T03:45:25.644Z,6.57
2018-07-02T03:46:22.984Z,6.57
2018-07-02T03:47:23.170Z,6.55
2018-07-02T03:48:23.008Z,6.56
2018-07-02T03:49:25.403Z,6.59
2018-07-02T03:50:23.004Z,6.56
2018-07-02T03:51:23.002Z,6.56
2018-07-02T03:52:23.230Z,6.55
2018-07-02T03:53:25.541Z,6.55
2018-07-02T03:54:23.039Z,6.56
2018-07-02T03:55:23.089Z,6.55
2018-07-02T03:56:23.046Z,6.57
2018-07-02T03:57:25.356Z,6.55
2018-07-02T03:58:23.072Z,6.55
2018-07-02T03:59:23.040Z,6.56
2018-07-02T04:00:22.993Z,6.56
2018-07-02T04:01:26.093Z,6.55
2018-07-02T04:02:22.988Z,6.57
2018-07-02T04:03:23.050Z,6.57
2018-07-02T04:04:23.017Z,6.57
2018-07-02T04:05:26.028Z,6.59
2018-07-02T04:06:23.024Z,6.55
2018-07-02T04:07:23.014Z,6.56
2018-07-02T04:08:23.022Z,6.57
2018-07-02T04:09:25.644Z,6.59
2018-07-02T04:10:22.979Z,6.55
2018-07-02T04:11:23.038Z,6.58
2018-07-02T04:12:23.015Z,6.57
2018-07-02T04:13:26.187Z,6.56
2018-07-02T04:14:23.056Z,6.57
2018-07-02T04:15:23.070Z,6.58
2018-07-02T04:16:25.796Z,6.58
2018-07-02T04:17:23.072Z,6.57
2018-07-02T04:18:26.832Z,6.55
2018-07-02T04:19:26.839Z,6.58
2018-07-02T04:20:25.019Z,6.58
2018-07-02T04:21:25.464Z,6.59
2018-07-02T04:22:23.219Z,6.58
2018-07-02T04:23:26.052Z,6.59
2018-07-02T04:24:23.041Z,6.58
2018-07-02T04:25:25.961Z,6.59
2018-07-02T04:26:23.102Z,6.56
2018-07-02T04:27:23.132Z,6.59
2018-07-02T04:28:25.268Z,6.58
2018-07-02T04:29:23.065Z,6.56
2018-07-02T04:30:23.165Z,6.6
2018-07-02T04:31:23.078Z,6.61
2018-07-02T04:32:23.154Z,6.61
2018-07-02T04:33:23.153Z,6.61
2018-07-02T04:34:23.192Z,6.62
2018-07-02T04:35:23.097Z,6.62
2018-07-02T04:36:23.161Z,6.61
2018-07-02T04:37:23.105Z,6.61
2018-07-02T04:38:23.255Z,6.63
2018-07-02T04:39:23.196Z,6.6
2018-07-02T04:40:29.542Z,6.61
2018-07-02T04:41:26.085Z,6.62
2018-07-02T04:42:23.172Z,6.62
2018-07-02T04:43:25.692Z,6.65
2018-07-02T04:44:26.204Z,6.61
2018-07-02T04:45:25.805Z,6.64
2018-07-02T04:46:23.290Z,6.6
2018-07-02T04:47:31.148Z,6.61
2018-07-02T04:48:26.751Z,6.62
2018-07-02T04:49:25.812Z,6.62
2018-07-02T04:50:26.251Z,6.65
2018-07-02T04:51:26.367Z,6.66
2018-07-02T04:52:26.040Z,6.66
2018-07-02T04:53:23.166Z,6.65
2018-07-02T04:54:27.431Z,6.65
2018-07-02T04:55:25.895Z,6.65
2018-07-02T04:56:27.192Z,6.68
2018-07-02T04:57:24.049Z,6.67
2018-07-02T04:58:27.127Z,6.68
2018-07-02T04:59:23.212Z,6.64
2018-07-02T05:00:23.053Z,6.63
2018-07-02T05:01:23.057Z,6.65
2018-07-02T05:02:23.090Z,6.63
2018-07-02T05:03:23.060Z,6.66
2018-07-02T05:04:23.066Z,6.65
2018-07-02T05:05:23.081Z,6.66
2018-07-02T05:06:23.046Z,6.65
2018-07-02T05:07:23.116Z,6.68
2018-07-02T05:08:23.279Z,6.71
2018-07-02T05:09:23.055Z,6.73
2018-07-02T05:10:23.106Z,6.7
2018-07-02T05:11:23.047Z,6.7
2018-07-02T05:12:23.108Z,6.72
2018-07-02T05:13:23.009Z,6.72
2018-07-02T05:14:23.759Z,6.73
2018-07-02T05:15:23.026Z,6.69
2018-07-02T05:16:23.011Z,6.73
2018-07-02T05:17:22.987Z,6.73
2018-07-02T05:18:22.996Z,6.69
2018-07-02T05:19:23.204Z,6.71
2018-07-02T05:20:23.048Z,6.72
2018-07-02T05:21:23.057Z,6.75
2018-07-02T05:22:24.401Z,6.77
2018-07-02T05:23:23.002Z,6.75
2018-07-02T05:24:23.044Z,6.77
2018-07-02T05:25:23.055Z,6.73
2018-07-02T05:26:23.058Z,6.75
2018-07-02T05:27:23.050Z,6.78
2018-07-02T05:28:23.055Z,6.8
2018-07-02T05:29:23.065Z,6.8
2018-07-02T05:30:23.025Z,6.79
2018-07-02T05:31:23.309Z,6.79
2018-07-02T05:32:23.055Z,6.81
2018-07-02T05:33:23.029Z,6.77
2018-07-02T05:34:23.078Z,6.79
2018-07-02T05:35:23.231Z,6.8
2018-07-02T05:36:23.022Z,6.79
2018-07-02T05:37:23.074Z,6.79
2018-07-02T05:38:23.037Z,6.81
2018-07-02T05:39:23.075Z,6.83
2018-07-02T05:40:23.298Z,6.79
2018-07-02T05:41:23.342Z,6.8
2018-07-02T05:42:23.098Z,6.82
2018-07-02T05:43:23.164Z,6.84
2018-07-02T05:44:23.129Z,6.82
2018-07-02T05:45:23.047Z,6.81
2018-07-02T05:46:23.040Z,6.83
2018-07-02T05:47:23.028Z,6.83
2018-07-02T05:48:23.066Z,6.83
2018-07-02T05:49:23.128Z,6.86
2018-07-02T05:50:23.092Z,6.89
2018-07-02T05:51:23.067Z,6.87
2018-07-02T05:52:23.343Z,6.85
2018-07-02T05:53:23.037Z,6.88
2018-07-02T05:54:23.052Z,6.89
2018-07-02T05:55:23.051Z,6.91
2018-07-02T05:56:23.050Z,6.9
2018-07-02T05:57:23.068Z,6.92
2018-07-02T05:58:23.091Z,6.9
2018-07-02T05:59:23.051Z,6.92
2018-07-02T06:00:24.303Z,6.89
2018-07-02T06:01:23.064Z,6.9
2018-07-02T06:02:23.076Z,6.88
2018-07-02T06:03:23.139Z,6.89
2018-07-02T06:04:23.078Z,6.9
2018-07-02T06:05:23.069Z,6.86
2018-07-02T06:06:23.071Z,6.88
2018-07-02T06:07:23.137Z,6.87
2018-07-02T06:08:23.051Z,6.9
2018-07-02T06:09:23.149Z,6.91
2018-07-02T06:10:23.126Z,6.9
2018-07-02T06:11:23.111Z,6.92
2018-07-02T06:12:23.297Z,6.91
2018-07-02T06:13:23.259Z,6.96
2018-07-02T06:14:23.096Z,6.95
2018-07-02T06:15:23.036Z,6.95
2018-07-02T06:16:24.543Z,6.94
2018-07-02T06:17:23.066Z,6.93
2018-07-02T06:18:23.130Z,6.97
2018-07-02T06:19:23.086Z,6.97
2018-07-02T06:20:23.121Z,6.97
2018-07-02T06:21:23.104Z,6.97
2018-07-02T06:22:23.318Z,6.97
2018-07-02T06:23:23.392Z,6.94
2018-07-02T06:24:23.076Z,6.96
2018-07-02T06:25:23.164Z,7.01
2018-07-02T06:26:23.089Z,7
2018-07-02T06:27:23.160Z,7.01
2018-07-02T06:28:23.099Z,6.98
2018-07-02T06:29:23.295Z,6.95
2018-07-02T06:30:23.490Z,6.95
2018-07-02T06:31:23.093Z,6.99
2018-07-02T06:32:23.629Z,6.97
2018-07-02T06:33:23.088Z,7.01
2018-07-02T06:34:23.149Z,6.98
2018-07-02T06:35:23.114Z,6.97
2018-07-02T06:36:23.100Z,7
2018-07-02T06:37:23.116Z,7.01
2018-07-02T06:38:23.107Z,6.98
2018-07-02T06:39:23.168Z,6.98
2018-07-02T06:40:23.099Z,7
2018-07-02T06:41:23.203Z,7.03
2018-07-02T06:42:23.101Z,7.02
2018-07-02T06:43:23.113Z,7.03
2018-07-02T06:44:23.082Z,6.97
2018-07-02T06:45:23.124Z,7.02
2018-07-02T06:46:23.102Z,6.99
2018-07-02T06:47:23.354Z,6.96
2018-07-02T06:48:23.438Z,7.02
2018-07-02T06:49:23.126Z,7.01
2018-07-02T06:50:23.276Z,7.04
2018-07-02T06:51:23.169Z,7.04
2018-07-02T06:52:23.150Z,7.11
2018-07-02T06:53:23.169Z,7.12
2018-07-02T06:54:23.169Z,7.2
2018-07-02T06:55:23.246Z,7.13
2018-07-02T06:56:23.160Z,7.11
2018-07-02T06:57:23.293Z,7.15
2018-07-02T06:58:23.156Z,7.15
2018-07-02T06:59:23.166Z,7.22
2018-07-02T07:00:23.096Z,7.19
2018-07-02T07:01:23.204Z,7.23
2018-07-02T07:02:23.170Z,7.2
2018-07-02T07:03:23.171Z,7.19
2018-07-02T07:04:23.148Z,7.17
2018-07-02T07:05:23.131Z,7.15
2018-07-02T07:06:23.218Z,7.23
2018-07-02T07:07:23.196Z,7.16
2018-07-02T07:08:23.124Z,7.2
2018-07-02T07:09:23.194Z,7.16
2018-07-02T07:10:23.103Z,7.17
2018-07-02T07:11:23.135Z,7.13
2018-07-02T07:12:23.159Z,7.16
2018-07-02T07:13:23.157Z,7.21
2018-07-02T07:14:23.127Z,7.19
2018-07-02T07:15:23.146Z,7.13
2018-07-02T07:16:23.159Z,7.14
2018-07-02T07:17:23.179Z,7.18
2018-07-02T07:18:23.194Z,7.15
2018-07-02T07:19:23.201Z,7.17
2018-07-02T07:20:23.133Z,7.22
2018-07-02T07:21:23.143Z,7.28
2018-07-02T07:22:23.147Z,7.18
2018-07-02T07:23:23.222Z,7.23
2018-07-02T07:24:23.322Z,7.29
2018-07-02T07:25:23.343Z,7.3
2018-07-02T07:26:23.176Z,7.27
2018-07-02T07:27:23.152Z,7.26
2018-07-02T07:28:23.173Z,7.23
2018-07-02T07:29:23.168Z,7.28
2018-07-02T07:30:23.176Z,7.24
2018-07-02T07:31:23.183Z,7.22
2018-07-02T07:32:23.183Z,7.21
2018-07-02T07:33:23.168Z,7.27
2018-07-02T07:34:23.183Z,7.3
2018-07-02T07:35:23.251Z,7.35
2018-07-02T07:36:23.180Z,7.31
2018-07-02T07:37:23.440Z,7.31
2018-07-02T07:38:23.163Z,7.31
2018-07-02T07:39:23.155Z,7.37
2018-07-02T07:40:23.202Z,7.39
2018-07-02T07:41:23.199Z,7.32
2018-07-02T07:42:23.158Z,7.35
2018-07-02T07:43:23.171Z,7.31
2018-07-02T07:44:23.208Z,7.36
2018-07-02T07:45:23.196Z,7.44
2018-07-02T07:46:23.154Z,7.37
2018-07-02T07:47:23.285Z,7.37
2018-07-02T07:48:23.156Z,7.34
2018-07-02T07:49:23.296Z,7.41
2018-07-02T07:50:23.219Z,7.38
2018-07-02T07:51:23.187Z,7.43
2018-07-02T07:52:23.164Z,7.49
2018-07-02T07:53:23.241Z,7.51
2018-07-02T07:54:23.174Z,7.54
2018-07-02T07:55:23.323Z,7.47
2018-07-02T07:56:23.185Z,7.44
2018-07-02T07:57:23.220Z,7.4
2018-07-02T07:58:23.171Z,7.44
2018-07-02T07:59:23.540Z,7.52
2018-07-02T08:00:23.185Z,7.49
2018-07-02T08:01:23.295Z,7.55
2018-07-02T08:02:23.199Z,7.49
2018-07-02T08:03:23.183Z,7.51
2018-07-02T08:04:23.177Z,7.57
2018-07-02T08:05:23.225Z,7.54
2018-07-02T08:06:23.224Z,7.54
2018-07-02T08:07:23.190Z,7.43
2018-07-02T08:08:23.192Z,7.45
2018-07-02T08:09:23.203Z,7.53
2018-07-02T08:10:23.500Z,7.43
2018-07-02T08:11:23.260Z,7.4
2018-07-02T08:12:23.542Z,7.46
2018-07-02T08:13:23.284Z,7.46
2018-07-02T08:14:23.249Z,7.54
2018-07-02T08:15:23.414Z,7.52
2018-07-02T08:16:23.456Z,7.5
2018-07-02T08:17:23.231Z,7.52
2018-07-02T08:18:23.201Z,7.58
2018-07-02T08:19:23.327Z,7.56
2018-07-02T08:20:23.215Z,7.57
2018-07-02T08:21:23.228Z,7.58
2018-07-02T08:22:23.266Z,7.53
2018-07-02T08:23:23.312Z,7.55
2018-07-02T08:24:23.324Z,7.58
2018-07-02T08:25:23.325Z,7.51
2018-07-02T08:26:23.260Z,7.64
2018-07-02T08:27:23.635Z,7.59
2018-07-02T08:28:23.220Z,7.59
2018-07-02T08:29:23.226Z,7.61
2018-07-02T08:30:23.395Z,7.53
2018-07-02T08:31:23.277Z,7.53
2018-07-02T08:32:23.214Z,7.53
2018-07-02T08:33:23.233Z,7.65
2018-07-02T08:34:23.377Z,7.6
2018-07-02T08:35:23.241Z,7.63
2018-07-02T08:36:23.503Z,7.59
2018-07-02T08:37:23.258Z,7.61
2018-07-02T08:38:23.243Z,7.59
2018-07-02T08:39:23.206Z,7.59
2018-07-02T08:40:23.260Z,7.6
2018-07-02T08:41:23.553Z,7.43
2018-07-02T08:42:23.253Z,7.56
2018-07-02T08:43:23.238Z,7.6
2018-07-02T08:44:23.228Z,7.55
2018-07-02T08:45:23.217Z,7.68
2018-07-02T08:46:23.231Z,7.54
2018-07-02T08:47:23.252Z,7.58
2018-07-02T08:48:23.248Z,7.62
2018-07-02T08:49:23.242Z,7.65
2018-07-02T08:50:23.263Z,7.61
2018-07-02T08:51:23.402Z,7.58
2018-07-02T08:52:23.320Z,7.56
2018-07-02T08:53:23.249Z,7.52
2018-07-02T08:54:23.289Z,7.59
2018-07-02T08:55:23.266Z,7.54
2018-07-02T08:56:23.543Z,7.56
2018-07-02T08:57:23.277Z,7.54
2018-07-02T08:58:23.705Z,7.52
2018-07-02T08:59:23.286Z,7.67
2018-07-02T09:00:23.262Z,7.69
2018-07-02T09:01:23.396Z,7.69
2018-07-02T09:02:23.256Z,7.62
2018-07-02T09:03:23.515Z,7.66
2018-07-02T09:04:23.350Z,7.62
2018-07-02T09:05:23.400Z,7.6
2018-07-02T09:06:23.465Z,7.61
2018-07-02T09:07:23.673Z,7.66
2018-07-02T09:08:23.283Z,7.68
2018-07-02T09:09:23.314Z,7.64
2018-07-02T09:10:23.249Z,7.6
2018-07-02T09:11:23.298Z,7.54
2018-07-02T09:12:23.283Z,7.52
2018-07-02T09:13:23.309Z,7.58
2018-07-02T09:14:23.300Z,7.54
2018-07-02T09:15:23.301Z,7.57
2018-07-02T09:16:23.298Z,7.61
2018-07-02T09:17:23.472Z,7.57
2018-07-02T09:18:23.284Z,7.61
2018-07-02T09:19:23.300Z,7.6
2018-07-02T09:20:23.259Z,7.63
2018-07-02T09:21:23.345Z,7.61
2018-07-02T09:22:23.279Z,7.44
2018-07-02T09:23:23.425Z,7.46
2018-07-02T09:24:23.331Z,7.5
2018-07-02T09:25:23.309Z,7.66
2018-07-02T09:26:23.304Z,7.52
2018-07-02T09:27:23.262Z,7.4
2018-07-02T09:28:23.312Z,7.49
2018-07-02T09:29:23.513Z,7.51
2018-07-02T09:30:23.486Z,7.54
2018-07-02T09:31:23.871Z,7.46
2018-07-02T09:32:23.850Z,7.52
2018-07-02T09:33:23.393Z,7.54
2018-07-02T09:34:23.271Z,7.51
2018-07-02T09:35:23.416Z,7.56
2018-07-02T09:36:23.353Z,7.51
2018-07-02T09:37:23.304Z,7.54
2018-07-02T09:38:23.324Z,7.52
2018-07-02T09:39:23.991Z,7.43
2018-07-02T09:40:23.307Z,7.47
2018-07-02T09:41:23.408Z,7.49
2018-07-02T09:42:23.325Z,7.45
2018-07-02T09:43:23.323Z,7.43
2018-07-02T09:44:23.321Z,7.49
2018-07-02T09:45:23.303Z,7.56
2018-07-02T09:46:23.325Z,7.48
2018-07-02T09:47:23.348Z,7.54
2018-07-02T09:48:23.435Z,7.42
2018-07-02T09:49:23.701Z,7.44
2018-07-02T09:50:23.322Z,7.35
2018-07-02T09:51:23.315Z,7.46
2018-07-02T09:52:23.319Z,7.3
2018-07-02T09:53:23.340Z,7.35
2018-07-02T09:54:23.299Z,7.29
2018-07-02T09:55:23.286Z,7.31
2018-07-02T09:56:23.343Z,7.17
2018-07-02T09:57:23.369Z,7.14
2018-07-02T09:58:23.331Z,7.19
2018-07-02T09:59:23.304Z,7.3
2018-07-02T10:00:23.336Z,7.34
2018-07-02T10:01:23.316Z,7.33
2018-07-02T10:02:23.328Z,7.23
2018-07-02T10:03:23.336Z,7.31
2018-07-02T10:04:23.666Z,7.33
2018-07-02T10:05:23.519Z,7.19
2018-07-02T10:06:23.824Z,7.27
2018-07-02T10:07:23.337Z,7.27
2018-07-02T10:08:23.387Z,7.2
2018-07-02T10:09:23.358Z,7.12
2018-07-02T10:10:23.407Z,7.07
2018-07-02T10:11:23.349Z,7.18
2018-07-02T10:12:23.355Z,7.17
2018-07-02T10:13:23.362Z,7.22
2018-07-02T10:14:23.670Z,7.28
2018-07-02T10:15:23.516Z,7.27
2018-07-02T10:16:23.453Z,7.15
2018-07-02T10:17:23.378Z,7.22
2018-07-02T10:18:23.363Z,7.24
2018-07-02T10:19:23.546Z,7.31
2018-07-02T10:20:23.789Z,7.38
2018-07-02T10:21:23.415Z,7.36
2018-07-02T10:22:23.607Z,7.27
2018-07-02T10:23:23.516Z,7.33
2018-07-02T10:24:23.369Z,7.36
2018-07-02T10:25:23.385Z,7.38
2018-07-02T10:26:23.348Z,7.27
2018-07-02T10:27:23.421Z,7.33
2018-07-02T10:28:23.472Z,7.34
2018-07-02T10:29:23.676Z,7.38
2018-07-02T10:30:23.337Z,7.34
2018-07-02T10:31:25.090Z,7.28
2018-07-02T10:32:23.401Z,7.29
2018-07-02T10:33:23.371Z,7.34
2018-07-02T10:34:23.480Z,7.35
2018-07-02T10:35:23.375Z,7.31
2018-07-02T10:36:23.380Z,7.13
2018-07-02T10:37:23.357Z,6.95
2018-07-02T10:38:23.424Z,6.97
2018-07-02T10:39:23.542Z,7
2018-07-02T10:40:23.413Z,6.88
2018-07-02T10:41:23.394Z,6.89
2018-07-02T10:42:23.525Z,6.91
2018-07-02T10:43:23.413Z,7.04
2018-07-02T10:44:23.388Z,6.98
2018-07-02T10:45:23.480Z,7.02
2018-07-02T10:46:23.435Z,7.1
2018-07-02T10:47:23.366Z,7.09
2018-07-02T10:48:23.535Z,7.22
2018-07-02T10:49:23.406Z,7.27
2018-07-02T10:50:23.688Z,7.17
2018-07-02T10:51:23.365Z,7.15
2018-07-02T10:52:23.400Z,7.24
2018-07-02T10:53:23.408Z,7.27
2018-07-02T10:54:23.519Z,7.25
2018-07-02T10:55:23.485Z,7.12
2018-07-02T10:56:23.370Z,7.22
2018-07-02T10:57:23.382Z,7.19
2018-07-02T10:58:23.440Z,7.12
2018-07-02T10:59:23.377Z,7.18
2018-07-02T11:00:23.414Z,7.22
2018-07-02T11:01:23.868Z,7.04
2018-07-02T11:02:23.422Z,6.89
2018-07-02T11:03:23.503Z,7
2018-07-02T11:04:23.404Z,7.14
2018-07-02T11:05:23.381Z,7.01
2018-07-02T11:06:23.384Z,6.93
2018-07-02T11:07:23.366Z,7
2018-07-02T11:08:23.388Z,7.11
2018-07-02T11:09:23.409Z,7.15
2018-07-02T11:10:23.392Z,7.07
2018-07-02T11:11:23.415Z,7.05
2018-07-02T11:12:23.396Z,7.09
2018-07-02T11:13:23.418Z,7.15
2018-07-02T11:14:23.390Z,7.09
2018-07-02T11:15:23.398Z,7.04
2018-07-02T11:16:23.474Z,7.09
2018-07-02T11:17:23.405Z,6.95
2018-07-02T11:18:23.445Z,7
2018-07-02T11:19:23.411Z,7
2018-07-02T11:20:23.451Z,7.15
2018-07-02T11:21:23.436Z,6.96
2018-07-02T11:22:23.407Z,7.16
2018-07-02T11:23:23.544Z,7.07
2018-07-02T11:24:23.464Z,7.14
2018-07-02T11:25:23.469Z,7.03
2018-07-02T11:26:23.457Z,6.93
2018-07-02T11:27:23.479Z,7.01
2018-07-02T11:28:23.425Z,7.07
2018-07-02T11:29:23.421Z,6.95
2018-07-02T11:30:23.463Z,7.05
2018-07-02T11:31:23.463Z,7.04
2018-07-02T11:32:23.435Z,7.09
2018-07-02T11:33:23.555Z,6.97
2018-07-02T11:34:23.436Z,6.94
2018-07-02T11:35:23.455Z,7.02
2018-07-02T11:36:23.418Z,7.06
2018-07-02T11:37:23.836Z,7.13
2018-07-02T11:38:23.452Z,7.31
2018-07-02T11:39:23.458Z,7.05
2018-07-02T11:40:23.497Z,7.08
2018-07-02T11:41:23.464Z,6.94
2018-07-02T11:42:23.556Z,6.81
2018-07-02T11:43:23.422Z,6.97
2018-07-02T11:44:23.458Z,7.02
2018-07-02T11:45:23.493Z,7.09
2018-07-02T11:46:23.531Z,7.15
2018-07-02T11:47:23.645Z,7.32
2018-07-02T11:48:23.449Z,7.13
2018-07-02T11:49:23.516Z,7.24
2018-07-02T11:50:23.463Z,7.29
2018-07-02T11:51:23.497Z,7.24
2018-07-02T11:52:23.517Z,7.31
2018-07-02T11:53:23.488Z,7.2
2018-07-02T11:54:23.500Z,7.24
2018-07-02T11:55:23.515Z,7.06
2018-07-02T11:56:23.538Z,7.2
2018-07-02T11:57:23.905Z,7.2
2018-07-02T11:58:23.565Z,7.17
2018-07-02T11:59:23.597Z,7.15
2018-07-02T12:00:23.485Z,7.2
2018-07-02T12:01:23.552Z,7.25
2018-07-02T12:02:23.622Z,7.08
2018-07-02T12:03:23.497Z,7.09
2018-07-02T12:04:23.502Z,7.15
2018-07-02T12:05:23.537Z,7.03
2018-07-02T12:06:23.592Z,7.09
2018-07-02T12:07:23.529Z,7.13
2018-07-02T12:08:23.611Z,7.1
2018-07-02T12:09:23.640Z,7.18
2018-07-02T12:10:23.690Z,6.98
2018-07-02T12:11:23.484Z,7.03
2018-07-02T12:12:23.577Z,7.09
2018-07-02T12:13:23.671Z,7.04
2018-07-02T12:14:23.596Z,6.9
2018-07-02T12:15:24.170Z,7
2018-07-02T12:16:23.558Z,7.15
2018-07-02T12:17:23.589Z,7.12
2018-07-02T12:18:24.229Z,7.12
2018-07-02T12:19:23.528Z,6.86
2018-07-02T12:20:23.542Z,6.86
2018-07-02T12:21:23.522Z,7.08
2018-07-02T12:22:23.526Z,7.05
2018-07-02T12:23:23.608Z,7.05
2018-07-02T12:24:23.535Z,7.2
2018-07-02T12:25:23.539Z,6.97
2018-07-02T12:26:23.549Z,7.08
2018-07-02T12:27:24.532Z,7.02
2018-07-02T12:28:24.118Z,7.09
2018-07-02T12:29:25.044Z,7.1
2018-07-02T12:30:26.551Z,7.09
2018-07-02T12:31:23.619Z,7.08
2018-07-02T12:32:23.521Z,7
2018-07-02T12:33:25.375Z,6.92
2018-07-02T12:34:23.584Z,7.07
2018-07-02T12:35:24.323Z,7
2018-07-02T12:36:23.596Z,6.93
2018-07-02T12:37:23.732Z,6.86
2018-07-02T12:38:23.533Z,6.74
2018-07-02T12:39:23.510Z,6.9
2018-07-02T12:40:24.403Z,6.83
2018-07-02T12:41:23.619Z,6.73
2018-07-02T12:42:23.587Z,6.77
2018-07-02T12:43:24.206Z,6.81
2018-07-02T12:44:23.550Z,7
2018-07-02T12:45:23.539Z,7.01
2018-07-02T12:46:23.606Z,6.94
2018-07-02T12:47:23.564Z,7.09
2018-07-02T12:48:23.523Z,7
2018-07-02T12:49:24.057Z,7.12
2018-07-02T12:50:23.575Z,7.12
2018-07-02T12:51:23.548Z,6.98
2018-07-02T12:52:23.496Z,6.91
2018-07-02T12:53:23.506Z,7.04
2018-07-02T12:54:24.681Z,7.03
2018-07-02T12:55:23.588Z,7.09
2018-07-02T12:56:23.605Z,7.06
2018-07-02T12:57:23.554Z,7.14
2018-07-02T12:58:23.530Z,7.11
2018-07-02T12:59:23.579Z,7.12
2018-07-02T13:00:23.580Z,7.18
2018-07-02T13:01:23.616Z,7.11
2018-07-02T13:02:23.671Z,7.05
2018-07-02T13:03:23.576Z,7.11
2018-07-02T13:04:23.602Z,7.03
2018-07-02T13:05:23.640Z,7.05
2018-07-02T13:06:23.623Z,7.12
2018-07-02T13:07:23.652Z,6.98
2018-07-02T13:08:23.609Z,6.99
2018-07-02T13:09:23.534Z,6.91
2018-07-02T13:10:23.671Z,6.89
2018-07-02T13:11:23.553Z,6.97
2018-07-02T13:12:23.670Z,6.82
2018-07-02T13:13:23.559Z,6.81
2018-07-02T13:14:23.568Z,6.95
2018-07-02T13:15:23.634Z,6.97
2018-07-02T13:16:23.691Z,6.97
2018-07-02T13:17:29.803Z,6.98
2018-07-02T13:18:23.913Z,6.87
2018-07-02T13:19:23.603Z,6.84
2018-07-02T13:20:23.614Z,6.99
2018-07-02T13:21:23.600Z,6.96